Terminal Aerodrome Forecast
Issued by NWS

Home | Current Version | Previous Version | Text Only | Print | Product List | Glossary Off
Versions: 1 2 3 4 5 6 7 8 9 10 11 12 13 14 15 16 17

244
FTUS43 KBIS 041740
TAFDIK
TAF
KDIK 041740Z 0418/0518 20009KT P6SM SCT250
     FM050300 23008KT P6SM VCSH OVC040
     FM050600 25009KT 2SM -SN BR OVC015
     FM050800 26010KT 1SM -SN BR OVC010
     FM051200 30013KT P6SM OVC015
     FM051400 30013KT P6SM OVC035=

USA.gov is the U.S. government's official web portal to all federal, state and local government web resources and services.